createdAt,value
2018-11-20T00:01:25.736Z,97308.64
2018-11-20T00:03:53.819Z,97315.44
2018-11-20T00:06:21.049Z,97314.28
2018-11-20T00:08:48.768Z,97322.48
2018-11-20T00:11:15.505Z,97320.87
2018-11-20T00:13:42.994Z,97324.73
2018-11-20T00:16:10.943Z,97329.75
2018-11-20T00:18:38.394Z,97323.73
2018-11-20T00:21:05.755Z,97324.54
2018-11-20T00:23:33.191Z,97327.34
2018-11-20T00:26:00.795Z,97330.11
2018-11-20T00:28:29.400Z,97327.04
2018-11-20T00:30:57.197Z,97322.95
2018-11-20T00:33:25.752Z,97324.89
2018-11-20T00:35:53.723Z,97327.99
2018-11-20T00:45:56.080Z,97314.40
2018-11-20T00:48:23.890Z,97311.48
2018-11-20T00:50:51.774Z,97306.70
2018-11-20T00:53:19.108Z,97313.10
2018-11-20T00:55:45.894Z,97319.41
2018-11-20T00:58:13.616Z,97325.28
2018-11-20T01:00:42.551Z,97321.55
2018-11-20T01:03:10.471Z,97319.66
2018-11-20T01:05:39.383Z,97315.84
2018-11-20T01:08:06.576Z,97319.88
2018-11-20T01:10:35.094Z,97315.55
2018-11-20T01:13:02.832Z,97304.56
2018-11-20T01:15:30.142Z,97312.76
2018-11-20T01:20:30.317Z,97315.33
2018-11-20T01:22:57.863Z,97308.09
2018-11-20T01:25:25.227Z,97304.28
2018-11-20T01:27:52.544Z,97303.99
2018-11-20T01:30:19.638Z,97300.84
2018-11-20T01:32:47.790Z,97302.40
2018-11-20T01:35:14.887Z,97296.27
2018-11-20T01:37:42.820Z,97297.76
2018-11-20T01:40:10.882Z,97294.97
2018-11-20T01:42:39.808Z,97287.84
2018-11-20T01:45:07.014Z,97285.63
2018-11-20T01:47:34.192Z,97283.35
2018-11-20T01:50:01.441Z,97286.71
2018-11-20T01:52:29.317Z,97282.55
2018-11-20T01:54:55.796Z,97285.77
2018-11-20T01:57:23.454Z,97277.45
2018-11-20T01:59:51.430Z,97285.58
2018-11-20T02:02:19.787Z,97293.50
2018-11-20T02:04:47.433Z,97297.08
2018-11-20T02:07:15.667Z,97284.59
2018-11-20T02:09:44.056Z,97279.17
2018-11-20T02:12:11.959Z,97273.69
2018-11-20T02:14:38.441Z,97275.39
2018-11-20T02:17:06.078Z,97263.98
2018-11-20T02:19:33.951Z,97268.22
2018-11-20T02:22:07.195Z,97266.97
2018-11-20T02:24:35.818Z,97274.27
2018-11-20T02:27:03.198Z,97274.50
2018-11-20T02:29:31.339Z,97271.31
2018-11-20T02:31:58.870Z,97272.91
2018-11-20T02:34:26.607Z,97274.53
2018-11-20T02:36:55.718Z,97273.06
2018-11-20T02:39:24.326Z,97288.17
2018-11-20T02:41:51.756Z,97280.48
2018-11-20T02:46:52.099Z,97289.83
2018-11-20T02:49:20.990Z,97278.27
2018-11-20T02:51:49.509Z,97272.37
2018-11-20T02:54:17.277Z,97273.77
2018-11-20T02:56:43.750Z,97262.09
2018-11-20T02:59:14.525Z,97257.84
2018-11-20T03:01:42.060Z,97246.17
2018-11-20T03:06:41.733Z,97244.37
2018-11-20T03:09:10.348Z,97234.33
2018-11-20T03:11:37.612Z,97231.52
2018-11-20T03:14:06.323Z,97235.02
2018-11-20T03:16:34.074Z,97231.71
2018-11-20T03:19:02.059Z,97233.75
2018-11-20T03:21:30.837Z,97228.59
2018-11-20T03:23:57.870Z,97226.03
2018-11-20T03:26:26.202Z,97225.68
2018-11-20T03:28:54.163Z,97221.11
2018-11-20T03:31:22.647Z,97215.80
2018-11-20T03:33:50.618Z,97208.70
2018-11-20T03:36:19.514Z,97207.03
2018-11-20T03:38:48.436Z,97201.39
2018-11-20T03:41:16.214Z,97203.34
2018-11-20T03:43:45.341Z,97212.81
2018-11-20T03:46:14.196Z,97223.09
2018-11-20T03:48:41.657Z,97212.91
2018-11-20T03:51:09.010Z,97206.00
2018-11-20T03:56:08.621Z,97191.95
2018-11-20T03:58:35.813Z,97186.47
2018-11-20T04:01:03.966Z,97189.83
2018-11-20T04:03:32.608Z,97177.11
2018-11-20T04:06:01.267Z,97166.50
2018-11-20T04:08:30.645Z,97161.60
2018-11-20T04:10:59.122Z,97160.16
2018-11-20T04:13:26.530Z,97155.12
2018-11-20T04:15:53.610Z,97147.27
2018-11-20T04:28:27.599Z,97143.69
2018-11-20T04:30:55.523Z,97152.73
2018-11-20T04:33:22.647Z,97166.92
2018-11-20T04:35:50.251Z,97169.44
2018-11-20T04:38:17.459Z,97162.87
2018-11-20T04:40:44.681Z,97154.56
2018-11-20T04:43:14.500Z,97137.13
2018-11-20T04:45:41.717Z,97128.02
2018-11-20T04:48:08.381Z,97126.44
2018-11-20T04:50:36.416Z,97130.80
2018-11-20T04:53:04.140Z,97139.73
2018-11-20T04:55:31.433Z,97130.98
2018-11-20T04:57:58.328Z,97130.52
2018-11-20T05:00:25.724Z,97124.14
2018-11-20T05:02:53.293Z,97116.93
2018-11-20T05:05:20.676Z,97123.34
2018-11-20T05:07:48.864Z,97123.00
2018-11-20T05:10:16.732Z,97112.58
2018-11-20T05:12:46.846Z,97110.45
2018-11-20T05:15:16.506Z,97095.58
2018-11-20T05:17:45.021Z,97091.59
2018-11-20T05:20:12.240Z,97081.72
2018-11-20T05:22:43.174Z,97075.77
2018-11-20T05:25:11.800Z,97074.56
2018-11-20T05:27:39.058Z,97072.30
2018-11-20T05:30:06.524Z,97072.47
2018-11-20T05:32:33.585Z,97080.46
2018-11-20T05:35:00.882Z,97078.48
2018-11-20T05:37:27.901Z,97082.08
2018-11-20T05:39:55.891Z,97068.08
2018-11-20T05:42:23.419Z,97063.34
2018-11-20T05:44:51.255Z,97061.52
2018-11-20T05:47:18.210Z,97070.19
2018-11-20T05:49:45.381Z,97063.17
2018-11-20T05:52:13.236Z,97063.95
2018-11-20T05:54:40.718Z,97054.04
2018-11-20T05:57:07.720Z,97048.81
2018-11-20T05:59:36.294Z,97059.92
2018-11-20T06:02:03.691Z,97060.88
2018-11-20T06:04:31.007Z,97056.00
2018-11-20T06:06:58.310Z,97053.89
2018-11-20T06:09:26.269Z,97057.46
2018-11-20T06:11:54.019Z,97058.77
2018-11-20T06:14:20.486Z,97050.80
2018-11-20T06:16:47.486Z,97052.74
2018-11-20T06:19:14.344Z,97056.02
2018-11-20T06:21:42.902Z,97061.55
2018-11-20T06:24:10.046Z,97068.85
2018-11-20T06:26:38.102Z,97069.67
2018-11-20T06:29:05.303Z,97073.30
2018-11-20T06:31:33.278Z,97066.14
2018-11-20T06:34:01.052Z,97068.74
2018-11-20T06:36:28.236Z,97072.47
2018-11-20T06:38:56.139Z,97071.83
2018-11-20T06:41:23.600Z,97074.10
2018-11-20T06:43:54.113Z,97076.06
2018-11-20T06:46:22.865Z,97081.91
2018-11-20T06:51:22.051Z,97081.09
2018-11-20T06:53:49.964Z,97076.22
2018-11-20T06:56:17.791Z,97074.93
2018-11-20T06:58:46.264Z,97065.48
2018-11-20T07:01:12.739Z,97067.58
2018-11-20T07:06:12.340Z,97071.48
2018-11-20T07:08:40.042Z,97069.54
2018-11-20T07:11:08.528Z,97074.12
2018-11-20T07:13:35.852Z,97074.44
2018-11-20T07:16:03.498Z,97069.38
2018-11-20T07:18:30.915Z,97071.67
2018-11-20T07:20:58.636Z,97063.83
2018-11-20T07:23:26.488Z,97068.42
2018-11-20T07:25:55.409Z,97070.03
2018-11-20T07:28:26.086Z,97067.58
2018-11-20T07:30:53.381Z,97071.66
2018-11-20T07:33:21.108Z,97072.32
2018-11-20T07:35:48.123Z,97073.30
2018-11-20T07:38:15.265Z,97072.48
2018-11-20T07:40:42.441Z,97072.64
2018-11-20T07:43:09.237Z,97069.38
2018-11-20T07:45:37.810Z,97080.47
2018-11-20T07:48:05.266Z,97076.53
2018-11-20T07:50:33.416Z,97075.52
2018-11-20T07:52:59.980Z,97081.10
2018-11-20T07:55:27.476Z,97079.31
2018-11-20T07:57:54.789Z,97074.59
2018-11-20T08:00:23.372Z,97067.09
2018-11-20T08:02:51.111Z,97066.61
2018-11-20T08:05:19.012Z,97069.88
2018-11-20T08:07:46.071Z,97061.73
2018-11-20T08:10:14.266Z,97064.65
2018-11-20T08:12:41.712Z,97063.18
2018-11-20T08:15:08.980Z,97070.19
2018-11-20T08:20:09.396Z,97081.59
2018-11-20T08:22:37.297Z,97076.05
2018-11-20T08:25:04.680Z,97074.90
2018-11-20T08:27:31.283Z,97076.53
2018-11-20T08:29:58.754Z,97074.08
2018-11-20T08:32:25.426Z,97073.61
2018-11-20T08:34:56.082Z,97080.42
2018-11-20T08:37:24.791Z,97078.16
2018-11-20T08:39:52.242Z,97068.39
2018-11-20T08:42:19.517Z,97069.53
2018-11-20T08:47:19.325Z,97064.31
2018-11-20T08:49:46.446Z,97076.70
2018-11-20T08:52:13.829Z,97077.50
2018-11-20T08:54:48.713Z,97075.58
2018-11-20T08:57:16.538Z,97075.23
2018-11-20T08:59:44.468Z,97081.10
2018-11-20T09:02:12.499Z,97086.31
2018-11-20T09:04:43.779Z,97084.39
2018-11-20T09:07:10.859Z,97089.59
2018-11-20T09:09:38.271Z,97090.20
2018-11-20T09:12:05.759Z,97089.20
2018-11-20T09:14:33.821Z,97090.29
2018-11-20T09:17:02.254Z,97093.00
2018-11-20T09:19:29.411Z,97085.25
2018-11-20T09:21:57.226Z,97089.19
2018-11-20T09:24:24.258Z,97091.03
2018-11-20T09:26:51.564Z,97086.30
2018-11-20T09:29:19.392Z,97085.50
2018-11-20T09:31:48.120Z,97085.03
2018-11-20T09:34:16.354Z,97082.42
2018-11-20T09:36:43.667Z,97082.76
2018-11-20T09:39:11.029Z,97075.89
2018-11-20T09:41:39.005Z,97078.63
2018-11-20T09:44:06.132Z,97071.34
2018-11-20T09:46:33.183Z,97065.14
2018-11-20T09:49:00.147Z,97055.70
2018-11-20T09:51:28.001Z,97050.79
2018-11-20T09:53:55.137Z,97041.98
2018-11-20T09:56:22.989Z,97035.60
2018-11-20T09:58:49.776Z,97040.73
2018-11-20T10:01:17.290Z,97040.53
2018-11-20T10:03:45.621Z,97029.37
2018-11-20T10:06:13.940Z,97036.00
2018-11-20T10:08:41.715Z,97032.55
2018-11-20T10:11:09.870Z,97019.52
2018-11-20T10:13:36.966Z,97023.63
2018-11-20T10:16:04.229Z,97009.61
2018-11-20T10:18:32.279Z,96998.34
2018-11-20T10:20:59.943Z,96993.59
2018-11-20T10:23:27.864Z,96991.40
2018-11-20T10:25:56.042Z,96980.54
2018-11-20T10:28:23.843Z,96992.64
2018-11-20T10:30:51.616Z,96992.05
2018-11-20T10:33:18.762Z,96981.05
2018-11-20T10:35:49.151Z,96970.25
2018-11-20T10:38:15.941Z,96972.05
2018-11-20T10:40:43.950Z,96976.13
2018-11-20T10:43:12.646Z,96965.61
2018-11-20T10:48:16.300Z,96959.13
2018-11-20T10:50:43.446Z,96956.42
2018-11-20T10:53:11.018Z,96959.45
2018-11-20T10:55:43.131Z,96946.27
2018-11-20T10:58:11.414Z,96942.14
2018-11-20T11:00:40.957Z,96935.66
2018-11-20T11:03:09.070Z,96931.64
2018-11-20T11:05:37.991Z,96940.34
2018-11-20T11:08:06.143Z,96931.24
2018-11-20T11:10:33.392Z,96929.56
2018-11-20T11:13:00.977Z,96933.08
2018-11-20T11:15:28.128Z,96930.26
2018-11-20T11:17:55.653Z,96931.68
2018-11-20T11:20:23.875Z,96938.38
2018-11-20T11:22:51.360Z,96939.83
2018-11-20T11:25:19.122Z,96942.71
2018-11-20T11:27:47.698Z,96945.20
2018-11-20T11:30:15.639Z,96939.75
2018-11-20T11:32:42.912Z,96943.92
2018-11-20T11:35:10.165Z,96943.38
2018-11-20T11:37:38.349Z,96936.65
2018-11-20T11:40:05.540Z,96936.73
2018-11-20T11:42:35.764Z,96933.47
2018-11-20T11:45:03.035Z,96938.53
2018-11-20T11:47:30.323Z,96936.02
2018-11-20T11:49:58.683Z,96932.09
2018-11-20T11:52:26.078Z,96934.02
2018-11-20T11:54:53.716Z,96931.28
2018-11-20T11:57:21.136Z,96938.79
2018-11-20T11:59:48.248Z,96939.13
2018-11-20T18:08:38.337Z,97073.95
2018-11-20T18:11:06.483Z,97065.47
2018-11-20T18:13:32.932Z,97075.89
2018-11-20T18:15:59.701Z,97073.77
2018-11-20T18:18:26.163Z,97066.09
2018-11-20T18:20:54.599Z,97061.52
2018-11-20T18:23:23.783Z,97061.67
2018-11-20T18:28:37.553Z,97060.16
2018-11-20T18:31:06.460Z,97061.89
2018-11-20T18:33:35.479Z,97063.83
2018-11-20T18:36:04.683Z,97061.38
2018-11-20T18:38:31.121Z,97060.63
2018-11-20T18:41:00.502Z,97057.23
2018-11-20T18:43:29.406Z,97058.98
2018-11-20T18:46:00.385Z,97051.37
2018-11-20T18:48:29.516Z,97054.48
2018-11-20T18:50:58.467Z,97049.08
2018-11-20T18:53:27.225Z,97053.22
2018-11-20T18:55:53.696Z,97043.77
2018-11-20T18:58:20.151Z,97047.58
2018-11-20T19:00:47.438Z,97044.52
2018-11-20T19:03:14.135Z,97041.91
2018-11-20T19:05:40.591Z,97031.76
2018-11-20T19:08:07.394Z,97034.97
2018-11-20T19:10:33.802Z,97034.41
2018-11-20T19:13:00.596Z,97030.86
2018-11-20T19:15:29.255Z,97033.93
2018-11-20T19:17:55.949Z,97033.81
2018-11-20T19:20:30.589Z,97037.15
2018-11-20T19:22:57.698Z,97034.54
2018-11-20T19:25:26.347Z,97038.55
2018-11-20T19:27:52.813Z,97034.29
2018-11-20T19:30:22.545Z,97033.92
2018-11-20T19:32:51.485Z,97025.23
2018-11-20T19:35:17.883Z,97026.20
2018-11-20T19:37:44.395Z,97024.28
2018-11-20T19:40:10.783Z,97027.06
2018-11-20T19:42:37.222Z,97026.22
2018-11-20T19:45:06.965Z,97028.96
2018-11-20T19:47:36.209Z,97029.86
2018-11-20T19:50:03.389Z,97033.87
2018-11-20T19:52:32.503Z,97027.73
2018-11-20T19:55:04.080Z,97024.39
2018-11-20T19:57:33.079Z,97029.66
2018-11-20T20:00:02.299Z,97026.98
2018-11-20T20:02:36.475Z,97037.94
2018-11-20T20:04:59.649Z,97032.05
2018-11-20T20:07:26.407Z,97032.72
2018-11-20T20:09:56.378Z,97037.63
2018-11-20T20:12:23.255Z,97033.23
2018-11-20T20:14:52.116Z,97034.53
2018-11-20T20:17:20.833Z,97025.43
2018-11-20T20:19:47.642Z,97027.58
2018-11-20T20:22:16.592Z,97028.87
2018-11-20T20:24:43.896Z,97025.83
2018-11-20T20:27:12.568Z,97026.45
2018-11-20T20:29:41.519Z,97021.97
2018-11-20T20:32:08.242Z,97022.81
2018-11-20T20:34:34.987Z,97023.84
2018-11-20T20:37:05.038Z,97022.16
2018-11-20T20:39:31.829Z,97027.32
2018-11-20T20:42:00.797Z,97029.13
2018-11-20T20:44:27.515Z,97028.94
2018-11-20T20:46:54.272Z,97039.41
2018-11-20T20:49:22.877Z,97045.55
2018-11-20T20:51:49.670Z,97040.66
2018-11-20T20:54:18.195Z,97040.38
2018-11-20T20:56:46.463Z,97042.09
2018-11-20T20:59:15.361Z,97045.02
2018-11-20T21:01:42.062Z,97043.92
2018-11-20T21:04:10.866Z,97039.62
2018-11-20T21:06:37.318Z,97045.16
2018-11-20T21:09:06.223Z,97044.08
2018-11-20T21:11:32.656Z,97045.59
2018-11-20T21:14:00.117Z,97044.04
2018-11-20T21:16:26.580Z,97051.02
2018-11-20T21:18:55.579Z,97049.95
2018-11-20T21:21:26.164Z,97052.20
2018-11-20T21:23:52.600Z,97056.04
2018-11-20T21:26:21.511Z,97056.43
2018-11-20T21:28:47.961Z,97060.69
2018-11-20T21:31:14.698Z,97062.46
2018-11-20T21:33:43.603Z,97065.87
2018-11-20T21:36:12.355Z,97074.52
2018-11-20T21:38:41.284Z,97076.81
2018-11-20T21:41:07.749Z,97081.09
2018-11-20T21:43:36.819Z,97093.98
2018-11-20T21:46:03.264Z,97100.19
2018-11-20T21:48:32.961Z,97107.04
2018-11-20T21:51:13.904Z,97105.06
2018-11-20T21:53:43.378Z,97113.69
2018-11-20T21:56:09.786Z,97115.30
2018-11-20T21:58:37.126Z,97125.44
2018-11-20T22:01:05.295Z,97130.95
2018-11-20T22:03:31.808Z,97140.28
2018-11-20T22:06:00.498Z,97138.15
2018-11-20T22:08:29.895Z,97135.87
2018-11-20T22:11:03.858Z,97140.27
2018-11-20T22:13:30.735Z,97147.27
2018-11-20T22:15:59.387Z,97149.70
2018-11-20T22:18:26.166Z,97149.89
2018-11-20T22:20:55.064Z,97153.16
2018-11-20T22:23:24.027Z,97160.93
2018-11-20T22:25:50.797Z,97164.89
2018-11-20T22:28:19.536Z,97171.25
2018-11-20T22:30:48.465Z,97173.06
2018-11-20T22:33:17.465Z,97166.00
2018-11-20T22:35:48.024Z,97173.07
2018-11-20T22:38:14.443Z,97165.55
2018-11-20T22:40:45.256Z,97170.59
2018-11-20T22:43:11.722Z,97164.97
2018-11-20T22:45:40.386Z,97159.82
2018-11-20T22:48:09.094Z,97164.25
2018-11-20T22:50:35.586Z,97166.70
2018-11-20T22:53:04.547Z,97164.75
2018-11-20T22:55:33.231Z,97173.08
2018-11-20T22:58:01.369Z,97174.88
2018-11-20T23:00:27.840Z,97178.12
2018-11-20T23:02:56.798Z,97177.12
2018-11-20T23:05:25.778Z,97179.08
2018-11-20T23:07:52.163Z,97185.12
2018-11-20T23:10:20.810Z,97179.34
2018-11-20T23:12:57.336Z,97179.97
2018-11-20T23:15:24.534Z,97175.70
2018-11-20T23:17:50.990Z,97175.44
2018-11-20T23:20:17.749Z,97178.81
2018-11-20T23:22:45.908Z,97178.47
2018-11-20T23:25:14.619Z,97167.83
2018-11-20T23:27:41.376Z,97165.78
2018-11-20T23:30:10.838Z,97165.83
2018-11-20T23:32:44.753Z,97157.06
2018-11-20T23:35:13.759Z,97154.45
2018-11-20T23:37:42.652Z,97157.24
2018-11-20T23:40:09.198Z,97153.83
2018-11-20T23:45:07.943Z,97148.42
2018-11-20T23:47:34.663Z,97147.43
2018-11-20T23:50:01.369Z,97148.74
2018-11-20T23:52:38.570Z,97143.66
2018-11-20T23:55:04.995Z,97144.02
2018-11-20T23:57:33.845Z,97132.09
